sensor_id;sensor_type;location;lat;lon;timestamp;P1;durP1;ratioP1;P2;durP2;ratioP2
22240;SDS011;11289;52.524;13.694;2022-10-31T00:00:46;39.67;;;32.03;;
22240;SDS011;11289;52.524;13.694;2022-10-31T00:03:12;33.72;;;30.00;;
22240;SDS011;11289;52.524;13.694;2022-10-31T00:05:41;34.97;;;31.23;;
22240;SDS011;11289;52.524;13.694;2022-10-31T00:08:08;35.42;;;31.55;;
22240;SDS011;11289;52.524;13.694;2022-10-31T00:10:36;34.38;;;29.42;;
22240;SDS011;11289;52.524;13.694;2022-10-31T00:13:06;35.60;;;30.77;;
22240;SDS011;11289;52.524;13.694;2022-10-31T00:15:35;37.30;;;33.25;;
22240;SDS011;11289;52.524;13.694;2022-10-31T00:18:02;35.10;;;31.02;;
22240;SDS011;11289;52.524;13.694;2022-10-31T00:20:28;32.88;;;29.48;;
22240;SDS011;11289;52.524;13.694;2022-10-31T00:22:57;37.78;;;31.30;;
22240;SDS011;11289;52.524;13.694;2022-10-31T00:25:23;39.75;;;31.30;;
22240;SDS011;11289;52.524;13.694;2022-10-31T00:27:48;36.03;;;29.52;;
22240;SDS011;11289;52.524;13.694;2022-10-31T00:30:14;33.17;;;28.45;;
22240;SDS011;11289;52.524;13.694;2022-10-31T00:32:39;33.22;;;29.67;;
22240;SDS011;11289;52.524;13.694;2022-10-31T00:35:05;36.85;;;28.70;;
22240;SDS011;11289;52.524;13.694;2022-10-31T00:37:30;32.58;;;29.05;;
22240;SDS011;11289;52.524;13.694;2022-10-31T00:39:56;40.08;;;30.33;;
22240;SDS011;11289;52.524;13.694;2022-10-31T00:42:21;37.25;;;30.48;;
22240;SDS011;11289;52.524;13.694;2022-10-31T00:44:46;35.28;;;29.85;;
22240;SDS011;11289;52.524;13.694;2022-10-31T00:47:12;34.97;;;29.70;;
22240;SDS011;11289;52.524;13.694;2022-10-31T00:49:37;31.05;;;27.83;;
22240;SDS011;11289;52.524;13.694;2022-10-31T00:52:03;38.17;;;31.08;;
22240;SDS011;11289;52.524;13.694;2022-10-31T00:54:28;37.55;;;29.20;;
22240;SDS011;11289;52.524;13.694;2022-10-31T00:56:55;32.42;;;28.70;;
22240;SDS011;11289;52.524;13.694;2022-10-31T00:59:21;35.50;;;30.42;;
22240;SDS011;11289;52.524;13.694;2022-10-31T01:01:47;35.95;;;30.63;;
22240;SDS011;11289;52.524;13.694;2022-10-31T01:04:12;40.17;;;31.13;;
22240;SDS011;11289;52.524;13.694;2022-10-31T01:06:37;39.45;;;32.15;;
22240;SDS011;11289;52.524;13.694;2022-10-31T01:09:03;39.30;;;30.52;;
22240;SDS011;11289;52.524;13.694;2022-10-31T01:11:28;40.10;;;33.33;;
22240;SDS011;11289;52.524;13.694;2022-10-31T01:13:53;37.50;;;30.42;;
22240;SDS011;11289;52.524;13.694;2022-10-31T01:16:20;41.53;;;32.83;;
22240;SDS011;11289;52.524;13.694;2022-10-31T01:18:48;37.40;;;33.53;;
22240;SDS011;11289;52.524;13.694;2022-10-31T01:21:15;35.45;;;31.73;;
22240;SDS011;11289;52.524;13.694;2022-10-31T01:23:43;42.90;;;34.47;;
22240;SDS011;11289;52.524;13.694;2022-10-31T01:28:38;36.80;;;32.95;;
22240;SDS011;11289;52.524;13.694;2022-10-31T01:31:08;39.03;;;31.83;;
22240;SDS011;11289;52.524;13.694;2022-10-31T01:33:34;36.80;;;32.70;;
22240;SDS011;11289;52.524;13.694;2022-10-31T01:36:01;37.95;;;31.95;;
22240;SDS011;11289;52.524;13.694;2022-10-31T01:38:35;34.83;;;31.13;;
22240;SDS011;11289;52.524;13.694;2022-10-31T01:41:00;38.95;;;32.78;;
22240;SDS011;11289;52.524;13.694;2022-10-31T01:43:41;37.88;;;32.15;;
22240;SDS011;11289;52.524;13.694;2022-10-31T01:46:07;35.58;;;31.92;;
22240;SDS011;11289;52.524;13.694;2022-10-31T01:48:32;36.10;;;32.10;;
22240;SDS011;11289;52.524;13.694;2022-10-31T01:50:58;36.00;;;32.22;;
22240;SDS011;11289;52.524;13.694;2022-10-31T01:53:23;35.35;;;31.50;;
22240;SDS011;11289;52.524;13.694;2022-10-31T01:55:49;40.45;;;31.13;;
22240;SDS011;11289;52.524;13.694;2022-10-31T01:58:15;37.47;;;30.88;;
22240;SDS011;11289;52.524;13.694;2022-10-31T02:00:46;38.38;;;32.50;;
22240;SDS011;11289;52.524;13.694;2022-10-31T02:03:17;35.10;;;29.33;;
22240;SDS011;11289;52.524;13.694;2022-10-31T02:05:45;35.00;;;30.92;;
22240;SDS011;11289;52.524;13.694;2022-10-31T02:10:57;34.42;;;30.08;;
22240;SDS011;11289;52.524;13.694;2022-10-31T02:13:24;36.33;;;30.45;;
22240;SDS011;11289;52.524;13.694;2022-10-31T02:15:54;34.67;;;30.60;;
22240;SDS011;11289;52.524;13.694;2022-10-31T02:18:22;35.38;;;29.65;;
22240;SDS011;11289;52.524;13.694;2022-10-31T02:21:01;34.10;;;30.20;;
22240;SDS011;11289;52.524;13.694;2022-10-31T02:26:37;37.72;;;30.52;;
22240;SDS011;11289;52.524;13.694;2022-10-31T02:45:39;36.28;;;28.77;;
22240;SDS011;11289;52.524;13.694;2022-10-31T02:48:16;33.53;;;29.90;;
22240;SDS011;11289;52.524;13.694;2022-10-31T02:50:46;33.97;;;29.65;;
22240;SDS011;11289;52.524;13.694;2022-10-31T02:53:17;38.22;;;31.58;;
22240;SDS011;11289;52.524;13.694;2022-10-31T02:56:05;36.22;;;28.95;;
22240;SDS011;11289;52.524;13.694;2022-10-31T02:58:35;36.83;;;30.23;;
22240;SDS011;11289;52.524;13.694;2022-10-31T03:15:12;35.22;;;30.73;;
22240;SDS011;11289;52.524;13.694;2022-10-31T03:17:50;35.10;;;29.13;;
22240;SDS011;11289;52.524;13.694;2022-10-31T03:20:43;33.47;;;28.92;;
22240;SDS011;11289;52.524;13.694;2022-10-31T03:23:13;34.65;;;29.23;;
22240;SDS011;11289;52.524;13.694;2022-10-31T03:25:41;31.42;;;28.15;;
22240;SDS011;11289;52.524;13.694;2022-10-31T03:28:09;35.60;;;29.58;;
22240;SDS011;11289;52.524;13.694;2022-10-31T03:30:38;33.35;;;28.00;;
22240;SDS011;11289;52.524;13.694;2022-10-31T03:33:09;37.60;;;28.08;;
22240;SDS011;11289;52.524;13.694;2022-10-31T03:35:39;33.80;;;28.13;;
22240;SDS011;11289;52.524;13.694;2022-10-31T03:38:10;34.15;;;29.45;;
22240;SDS011;11289;52.524;13.694;2022-10-31T03:40:36;33.22;;;29.63;;
22240;SDS011;11289;52.524;13.694;2022-10-31T03:43:06;33.17;;;29.30;;
22240;SDS011;11289;52.524;13.694;2022-10-31T03:45:38;33.28;;;29.33;;
22240;SDS011;11289;52.524;13.694;2022-10-31T03:48:07;34.88;;;28.27;;
22240;SDS011;11289;52.524;13.694;2022-10-31T03:50:37;36.13;;;29.05;;
22240;SDS011;11289;52.524;13.694;2022-10-31T03:53:13;36.10;;;28.90;;
22240;SDS011;11289;52.524;13.694;2022-10-31T03:55:52;34.20;;;30.20;;
22240;SDS011;11289;52.524;13.694;2022-10-31T03:58:24;35.90;;;30.70;;
22240;SDS011;11289;52.524;13.694;2022-10-31T04:00:54;35.25;;;31.50;;
22240;SDS011;11289;52.524;13.694;2022-10-31T04:03:29;39.03;;;30.45;;
22240;SDS011;11289;52.524;13.694;2022-10-31T04:05:58;36.85;;;29.20;;
22240;SDS011;11289;52.524;13.694;2022-10-31T04:08:29;40.05;;;31.08;;
22240;SDS011;11289;52.524;13.694;2022-10-31T04:10:57;35.15;;;29.67;;
22240;SDS011;11289;52.524;13.694;2022-10-31T04:13:29;32.83;;;28.17;;
22240;SDS011;11289;52.524;13.694;2022-10-31T04:15:58;34.28;;;30.25;;
22240;SDS011;11289;52.524;13.694;2022-10-31T04:18:24;35.03;;;29.27;;
22240;SDS011;11289;52.524;13.694;2022-10-31T04:20:59;32.65;;;29.08;;
22240;SDS011;11289;52.524;13.694;2022-10-31T04:23:27;34.15;;;30.23;;
22240;SDS011;11289;52.524;13.694;2022-10-31T04:25:53;37.50;;;30.77;;
22240;SDS011;11289;52.524;13.694;2022-10-31T04:28:18;33.38;;;29.75;;
22240;SDS011;11289;52.524;13.694;2022-10-31T04:30:44;33.17;;;28.55;;
22240;SDS011;11289;52.524;13.694;2022-10-31T04:33:09;31.67;;;27.80;;
22240;SDS011;11289;52.524;13.694;2022-10-31T04:35:35;33.17;;;28.25;;
22240;SDS011;11289;52.524;13.694;2022-10-31T04:38:00;35.35;;;28.02;;
22240;SDS011;11289;52.524;13.694;2022-10-31T04:40:25;32.00;;;28.48;;
22240;SDS011;11289;52.524;13.694;2022-10-31T04:42:51;35.60;;;29.25;;
22240;SDS011;11289;52.524;13.694;2022-10-31T04:45:16;34.58;;;30.20;;
22240;SDS011;11289;52.524;13.694;2022-10-31T04:47:42;38.47;;;29.13;;
22240;SDS011;11289;52.524;13.694;2022-10-31T04:50:07;30.98;;;27.65;;
22240;SDS011;11289;52.524;13.694;2022-10-31T04:52:38;38.00;;;28.52;;
22240;SDS011;11289;52.524;13.694;2022-10-31T04:55:04;32.30;;;28.23;;
22240;SDS011;11289;52.524;13.694;2022-10-31T04:57:30;31.40;;;26.40;;
22240;SDS011;11289;52.524;13.694;2022-10-31T04:59:55;32.15;;;27.20;;
22240;SDS011;11289;52.524;13.694;2022-10-31T05:02:21;36.75;;;29.30;;
22240;SDS011;11289;52.524;13.694;2022-10-31T05:04:46;32.78;;;27.90;;
22240;SDS011;11289;52.524;13.694;2022-10-31T05:07:11;35.45;;;26.85;;
22240;SDS011;11289;52.524;13.694;2022-10-31T05:09:37;32.17;;;25.77;;
22240;SDS011;11289;52.524;13.694;2022-10-31T05:12:02;30.23;;;26.98;;
22240;SDS011;11289;52.524;13.694;2022-10-31T05:14:28;30.30;;;26.20;;
22240;SDS011;11289;52.524;13.694;2022-10-31T05:16:53;33.90;;;27.40;;
22240;SDS011;11289;52.524;13.694;2022-10-31T05:19:19;30.48;;;27.15;;
22240;SDS011;11289;52.524;13.694;2022-10-31T05:21:44;29.95;;;26.58;;
22240;SDS011;11289;52.524;13.694;2022-10-31T05:24:09;34.53;;;27.13;;
22240;SDS011;11289;52.524;13.694;2022-10-31T05:26:35;28.75;;;25.55;;
22240;SDS011;11289;52.524;13.694;2022-10-31T05:29:00;31.38;;;26.20;;
22240;SDS011;11289;52.524;13.694;2022-10-31T05:31:26;33.03;;;25.80;;
22240;SDS011;11289;52.524;13.694;2022-10-31T05:33:51;29.65;;;25.33;;
22240;SDS011;11289;52.524;13.694;2022-10-31T05:36:16;27.27;;;24.38;;
22240;SDS011;11289;52.524;13.694;2022-10-31T05:38:42;34.55;;;26.52;;
22240;SDS011;11289;52.524;13.694;2022-10-31T05:41:08;32.10;;;24.35;;
22240;SDS011;11289;52.524;13.694;2022-10-31T05:43:34;25.73;;;22.58;;
22240;SDS011;11289;52.524;13.694;2022-10-31T05:46:00;27.38;;;23.85;;
22240;SDS011;11289;52.524;13.694;2022-10-31T05:48:25;26.65;;;22.33;;
22240;SDS011;11289;52.524;13.694;2022-10-31T05:50:50;30.05;;;22.65;;
22240;SDS011;11289;52.524;13.694;2022-10-31T05:53:17;26.27;;;21.27;;
22240;SDS011;11289;52.524;13.694;2022-10-31T05:55:42;23.58;;;19.75;;
22240;SDS011;11289;52.524;13.694;2022-10-31T05:58:08;22.73;;;20.33;;
22240;SDS011;11289;52.524;13.694;2022-10-31T06:00:35;20.77;;;18.33;;
22240;SDS011;11289;52.524;13.694;2022-10-31T06:03:04;25.23;;;19.60;;
22240;SDS011;11289;52.524;13.694;2022-10-31T06:05:31;21.90;;;17.58;;
22240;SDS011;11289;52.524;13.694;2022-10-31T06:07:57;27.23;;;17.13;;
22240;SDS011;11289;52.524;13.694;2022-10-31T06:10:23;22.45;;;17.25;;
22240;SDS011;11289;52.524;13.694;2022-10-31T06:12:49;20.73;;;17.83;;
22240;SDS011;11289;52.524;13.694;2022-10-31T06:15:14;20.98;;;18.30;;
22240;SDS011;11289;52.524;13.694;2022-10-31T06:17:40;20.80;;;18.00;;
22240;SDS011;11289;52.524;13.694;2022-10-31T06:20:06;22.70;;;18.92;;
22240;SDS011;11289;52.524;13.694;2022-10-31T06:22:32;20.83;;;18.50;;
22240;SDS011;11289;52.524;13.694;2022-10-31T06:24:58;21.15;;;18.52;;
22240;SDS011;11289;52.524;13.694;2022-10-31T06:27:23;25.30;;;18.80;;
22240;SDS011;11289;52.524;13.694;2022-10-31T06:29:48;24.15;;;18.75;;
22240;SDS011;11289;52.524;13.694;2022-10-31T06:32:14;25.17;;;19.80;;
22240;SDS011;11289;52.524;13.694;2022-10-31T06:34:40;25.67;;;19.88;;
22240;SDS011;11289;52.524;13.694;2022-10-31T06:37:12;23.33;;;19.83;;
22240;SDS011;11289;52.524;13.694;2022-10-31T06:39:38;24.55;;;19.15;;
22240;SDS011;11289;52.524;13.694;2022-10-31T06:42:03;22.35;;;19.13;;
22240;SDS011;11289;52.524;13.694;2022-10-31T06:44:30;24.48;;;19.75;;
22240;SDS011;11289;52.524;13.694;2022-10-31T06:46:55;32.80;;;22.52;;
22240;SDS011;11289;52.524;13.694;2022-10-31T06:49:20;32.35;;;24.25;;
22240;SDS011;11289;52.524;13.694;2022-10-31T06:51:49;33.53;;;24.40;;
22240;SDS011;11289;52.524;13.694;2022-10-31T06:54:15;28.23;;;22.75;;
22240;SDS011;11289;52.524;13.694;2022-10-31T06:56:41;31.73;;;24.52;;
22240;SDS011;11289;52.524;13.694;2022-10-31T06:59:07;27.30;;;21.60;;
22240;SDS011;11289;52.524;13.694;2022-10-31T07:01:32;30.02;;;22.83;;
22240;SDS011;11289;52.524;13.694;2022-10-31T07:03:57;30.08;;;23.88;;
22240;SDS011;11289;52.524;13.694;2022-10-31T07:06:23;30.05;;;24.38;;
22240;SDS011;11289;52.524;13.694;2022-10-31T07:08:48;30.60;;;24.10;;
22240;SDS011;11289;52.524;13.694;2022-10-31T07:11:14;36.08;;;25.10;;
22240;SDS011;11289;52.524;13.694;2022-10-31T07:13:39;31.17;;;25.73;;
22240;SDS011;11289;52.524;13.694;2022-10-31T07:16:05;31.67;;;26.40;;
22240;SDS011;11289;52.524;13.694;2022-10-31T07:18:36;31.48;;;25.20;;
22240;SDS011;11289;52.524;13.694;2022-10-31T07:21:02;31.75;;;26.05;;
22240;SDS011;11289;52.524;13.694;2022-10-31T07:23:28;38.80;;;27.88;;
22240;SDS011;11289;52.524;13.694;2022-10-31T07:25:56;39.38;;;26.55;;
22240;SDS011;11289;52.524;13.694;2022-10-31T07:28:23;35.35;;;24.50;;
22240;SDS011;11289;52.524;13.694;2022-10-31T07:30:49;30.25;;;24.77;;
22240;SDS011;11289;52.524;13.694;2022-10-31T07:33:18;33.08;;;25.98;;
22240;SDS011;11289;52.524;13.694;2022-10-31T07:35:44;39.20;;;29.85;;
22240;SDS011;11289;52.524;13.694;2022-10-31T07:38:10;34.72;;;28.05;;
22240;SDS011;11289;52.524;13.694;2022-10-31T07:40:37;39.45;;;29.05;;
22240;SDS011;11289;52.524;13.694;2022-10-31T07:43:02;34.08;;;26.58;;
22240;SDS011;11289;52.524;13.694;2022-10-31T07:45:28;35.95;;;26.67;;
22240;SDS011;11289;52.524;13.694;2022-10-31T07:47:54;32.88;;;28.52;;
22240;SDS011;11289;52.524;13.694;2022-10-31T07:50:20;34.38;;;27.20;;
22240;SDS011;11289;52.524;13.694;2022-10-31T07:52:47;28.50;;;24.70;;
22240;SDS011;11289;52.524;13.694;2022-10-31T07:55:13;35.00;;;29.17;;
22240;SDS011;11289;52.524;13.694;2022-10-31T07:57:39;35.53;;;27.50;;
22240;SDS011;11289;52.524;13.694;2022-10-31T08:00:06;38.00;;;27.27;;
22240;SDS011;11289;52.524;13.694;2022-10-31T08:02:33;30.17;;;23.98;;
22240;SDS011;11289;52.524;13.694;2022-10-31T08:04:59;28.23;;;22.70;;
22240;SDS011;11289;52.524;13.694;2022-10-31T08:07:26;25.50;;;19.95;;
22240;SDS011;11289;52.524;13.694;2022-10-31T08:09:53;29.05;;;19.67;;
22240;SDS011;11289;52.524;13.694;2022-10-31T08:12:19;31.13;;;20.35;;
22240;SDS011;11289;52.524;13.694;2022-10-31T08:14:45;29.08;;;20.13;;
22240;SDS011;11289;52.524;13.694;2022-10-31T08:17:10;23.27;;;19.05;;
22240;SDS011;11289;52.524;13.694;2022-10-31T08:19:36;22.35;;;16.90;;
22240;SDS011;11289;52.524;13.694;2022-10-31T08:22:01;30.58;;;18.98;;
22240;SDS011;11289;52.524;13.694;2022-10-31T08:24:27;25.60;;;17.27;;
22240;SDS011;11289;52.524;13.694;2022-10-31T08:26:52;22.33;;;17.63;;
22240;SDS011;11289;52.524;13.694;2022-10-31T08:29:17;26.40;;;18.27;;
22240;SDS011;11289;52.524;13.694;2022-10-31T08:31:43;26.75;;;17.55;;
22240;SDS011;11289;52.524;13.694;2022-10-31T08:34:08;28.85;;;18.30;;
22240;SDS011;11289;52.524;13.694;2022-10-31T08:36:34;26.25;;;17.13;;
22240;SDS011;11289;52.524;13.694;2022-10-31T08:38:59;25.15;;;16.88;;
22240;SDS011;11289;52.524;13.694;2022-10-31T08:41:25;26.55;;;17.42;;
22240;SDS011;11289;52.524;13.694;2022-10-31T08:43:50;27.67;;;17.95;;
22240;SDS011;11289;52.524;13.694;2022-10-31T08:46:16;24.50;;;18.10;;
22240;SDS011;11289;52.524;13.694;2022-10-31T08:48:42;29.40;;;17.73;;
22240;SDS011;11289;52.524;13.694;2022-10-31T08:51:08;27.52;;;18.85;;
22240;SDS011;11289;52.524;13.694;2022-10-31T08:53:34;27.92;;;17.92;;
22240;SDS011;11289;52.524;13.694;2022-10-31T08:56:00;30.45;;;18.33;;
22240;SDS011;11289;52.524;13.694;2022-10-31T08:58:25;28.52;;;17.35;;
22240;SDS011;11289;52.524;13.694;2022-10-31T09:00:51;26.05;;;18.02;;
22240;SDS011;11289;52.524;13.694;2022-10-31T09:03:22;25.10;;;16.00;;
22240;SDS011;11289;52.524;13.694;2022-10-31T09:05:49;26.83;;;16.92;;
22240;SDS011;11289;52.524;13.694;2022-10-31T09:08:15;30.17;;;19.10;;
22240;SDS011;11289;52.524;13.694;2022-10-31T09:10:41;25.20;;;17.42;;
22240;SDS011;11289;52.524;13.694;2022-10-31T09:13:15;31.17;;;18.65;;
22240;SDS011;11289;52.524;13.694;2022-10-31T09:15:46;31.90;;;18.13;;
22240;SDS011;11289;52.524;13.694;2022-10-31T09:18:13;25.80;;;17.85;;
22240;SDS011;11289;52.524;13.694;2022-10-31T09:20:41;27.10;;;18.90;;
22240;SDS011;11289;52.524;13.694;2022-10-31T09:23:11;27.48;;;18.95;;
22240;SDS011;11289;52.524;13.694;2022-10-31T09:25:38;29.45;;;18.85;;
22240;SDS011;11289;52.524;13.694;2022-10-31T09:28:05;29.40;;;19.17;;
22240;SDS011;11289;52.524;13.694;2022-10-31T09:30:32;24.00;;;17.42;;
22240;SDS011;11289;52.524;13.694;2022-10-31T09:33:03;28.25;;;17.88;;
22240;SDS011;11289;52.524;13.694;2022-10-31T09:35:38;31.25;;;18.73;;
22240;SDS011;11289;52.524;13.694;2022-10-31T09:38:05;27.67;;;17.48;;
22240;SDS011;11289;52.524;13.694;2022-10-31T09:40:36;26.63;;;17.70;;
22240;SDS011;11289;52.524;13.694;2022-10-31T09:43:32;26.80;;;18.23;;
22240;SDS011;11289;52.524;13.694;2022-10-31T09:49:03;31.92;;;17.75;;
22240;SDS011;11289;52.524;13.694;2022-10-31T09:51:33;27.60;;;18.33;;
22240;SDS011;11289;52.524;13.694;2022-10-31T09:54:06;27.67;;;18.40;;
22240;SDS011;11289;52.524;13.694;2022-10-31T09:56:37;28.55;;;17.40;;
22240;SDS011;11289;52.524;13.694;2022-10-31T09:59:04;24.67;;;18.10;;
22240;SDS011;11289;52.524;13.694;2022-10-31T10:01:42;28.33;;;18.13;;
22240;SDS011;11289;52.524;13.694;2022-10-31T10:07:30;27.27;;;19.25;;
22240;SDS011;11289;52.524;13.694;2022-10-31T10:10:18;23.73;;;16.30;;
22240;SDS011;11289;52.524;13.694;2022-10-31T10:18:29;25.00;;;16.98;;
22240;SDS011;11289;52.524;13.694;2022-10-31T10:21:16;27.55;;;16.58;;
22240;SDS011;11289;52.524;13.694;2022-10-31T10:24:15;28.42;;;17.42;;
22240;SDS011;11289;52.524;13.694;2022-10-31T10:26:51;29.38;;;17.40;;
22240;SDS011;11289;52.524;13.694;2022-10-31T10:29:36;23.20;;;16.42;;
22240;SDS011;11289;52.524;13.694;2022-10-31T10:32:12;26.58;;;16.75;;
22240;SDS011;11289;52.524;13.694;2022-10-31T10:34:46;29.23;;;18.55;;
22240;SDS011;11289;52.524;13.694;2022-10-31T10:39:59;29.83;;;17.88;;
22240;SDS011;11289;52.524;13.694;2022-10-31T10:42:39;27.52;;;18.35;;
22240;SDS011;11289;52.524;13.694;2022-10-31T10:45:23;28.65;;;19.15;;
22240;SDS011;11289;52.524;13.694;2022-10-31T10:48:11;37.00;;;19.90;;
22240;SDS011;11289;52.524;13.694;2022-10-31T10:50:41;31.80;;;19.80;;
22240;SDS011;11289;52.524;13.694;2022-10-31T10:56:43;27.17;;;18.70;;
22240;SDS011;11289;52.524;13.694;2022-10-31T10:59:17;22.63;;;16.90;;
22240;SDS011;11289;52.524;13.694;2022-10-31T11:01:48;24.02;;;16.50;;
22240;SDS011;11289;52.524;13.694;2022-10-31T11:04:25;28.48;;;16.80;;
22240;SDS011;11289;52.524;13.694;2022-10-31T11:09:34;28.92;;;17.17;;
22240;SDS011;11289;52.524;13.694;2022-10-31T11:12:05;25.20;;;18.10;;
22240;SDS011;11289;52.524;13.694;2022-10-31T11:14:35;27.83;;;18.80;;
22240;SDS011;11289;52.524;13.694;2022-10-31T11:17:17;26.83;;;16.73;;
22240;SDS011;11289;52.524;13.694;2022-10-31T11:19:47;26.55;;;17.33;;
22240;SDS011;11289;52.524;13.694;2022-10-31T11:22:17;33.33;;;17.88;;
22240;SDS011;11289;52.524;13.694;2022-10-31T11:24:45;28.13;;;17.77;;
22240;SDS011;11289;52.524;13.694;2022-10-31T11:27:16;29.00;;;19.33;;
22240;SDS011;11289;52.524;13.694;2022-10-31T11:29:45;28.67;;;18.85;;
22240;SDS011;11289;52.524;13.694;2022-10-31T11:32:21;31.33;;;19.83;;
22240;SDS011;11289;52.524;13.694;2022-10-31T11:34:56;26.52;;;17.52;;
22240;SDS011;11289;52.524;13.694;2022-10-31T11:37:29;25.92;;;17.08;;
22240;SDS011;11289;52.524;13.694;2022-10-31T11:40:00;30.30;;;19.17;;
22240;SDS011;11289;52.524;13.694;2022-10-31T11:42:38;26.95;;;17.88;;
22240;SDS011;11289;52.524;13.694;2022-10-31T11:45:12;29.45;;;17.80;;
22240;SDS011;11289;52.524;13.694;2022-10-31T11:47:44;29.33;;;19.52;;
22240;SDS011;11289;52.524;13.694;2022-10-31T11:50:18;33.55;;;19.70;;
22240;SDS011;11289;52.524;13.694;2022-10-31T12:02:48;33.17;;;19.25;;
22240;SDS011;11289;52.524;13.694;2022-10-31T12:07:54;31.50;;;18.75;;
22240;SDS011;11289;52.524;13.694;2022-10-31T12:10:20;29.52;;;18.05;;
22240;SDS011;11289;52.524;13.694;2022-10-31T12:15:34;26.05;;;17.73;;
22240;SDS011;11289;52.524;13.694;2022-10-31T12:26:26;28.98;;;18.23;;
22240;SDS011;11289;52.524;13.694;2022-10-31T12:32:01;32.20;;;19.42;;
22240;SDS011;11289;52.524;13.694;2022-10-31T12:35:08;33.55;;;20.40;;
22240;SDS011;11289;52.524;13.694;2022-10-31T12:43:57;32.13;;;19.67;;
22240;SDS011;11289;52.524;13.694;2022-10-31T12:57:59;32.35;;;20.65;;
22240;SDS011;11289;52.524;13.694;2022-10-31T13:00:28;36.60;;;21.83;;
22240;SDS011;11289;52.524;13.694;2022-10-31T13:03:08;32.85;;;21.10;;
22240;SDS011;11289;52.524;13.694;2022-10-31T13:05:46;36.25;;;20.58;;
22240;SDS011;11289;52.524;13.694;2022-10-31T13:08:24;30.83;;;20.25;;
22240;SDS011;11289;52.524;13.694;2022-10-31T13:15:03;33.55;;;21.27;;
22240;SDS011;11289;52.524;13.694;2022-10-31T13:17:03;35.15;;;21.17;;
22240;SDS011;11289;52.524;13.694;2022-10-31T13:22:12;33.03;;;20.27;;
22240;SDS011;11289;52.524;13.694;2022-10-31T13:24:46;33.78;;;19.55;;
22240;SDS011;11289;52.524;13.694;2022-10-31T13:27:22;28.88;;;20.65;;
22240;SDS011;11289;52.524;13.694;2022-10-31T13:32:52;35.67;;;20.48;;
22240;SDS011;11289;52.524;13.694;2022-10-31T13:35:42;39.17;;;21.95;;
22240;SDS011;11289;52.524;13.694;2022-10-31T13:38:21;30.45;;;20.77;;
22240;SDS011;11289;52.524;13.694;2022-10-31T13:48:57;32.15;;;20.95;;
22240;SDS011;11289;52.524;13.694;2022-10-31T13:51:27;28.30;;;19.90;;
22240;SDS011;11289;52.524;13.694;2022-10-31T13:56:21;34.83;;;21.52;;
22240;SDS011;11289;52.524;13.694;2022-10-31T14:01:28;31.75;;;21.40;;
22240;SDS011;11289;52.524;13.694;2022-10-31T14:04:05;34.83;;;21.35;;
22240;SDS011;11289;52.524;13.694;2022-10-31T14:09:31;34.42;;;22.67;;
22240;SDS011;11289;52.524;13.694;2022-10-31T14:12:00;33.75;;;21.90;;
22240;SDS011;11289;52.524;13.694;2022-10-31T14:14:33;34.25;;;22.30;;
22240;SDS011;11289;52.524;13.694;2022-10-31T14:17:04;37.33;;;22.55;;
22240;SDS011;11289;52.524;13.694;2022-10-31T14:19:31;32.97;;;22.58;;
22240;SDS011;11289;52.524;13.694;2022-10-31T14:21:56;31.35;;;21.42;;
22240;SDS011;11289;52.524;13.694;2022-10-31T14:27:42;36.25;;;21.40;;
22240;SDS011;11289;52.524;13.694;2022-10-31T14:29:44;33.58;;;20.45;;
22240;SDS011;11289;52.524;13.694;2022-10-31T14:34:39;30.33;;;18.92;;
22240;SDS011;11289;52.524;13.694;2022-10-31T14:45:15;26.33;;;16.02;;
22240;SDS011;11289;52.524;13.694;2022-10-31T14:53:12;20.52;;;15.65;;
22240;SDS011;11289;52.524;13.694;2022-10-31T14:56:01;31.63;;;18.88;;
22240;SDS011;11289;52.524;13.694;2022-10-31T14:58:38;27.45;;;15.70;;
22240;SDS011;11289;52.524;13.694;2022-10-31T15:01:07;27.58;;;17.42;;
22240;SDS011;11289;52.524;13.694;2022-10-31T15:03:44;25.00;;;16.90;;
22240;SDS011;11289;52.524;13.694;2022-10-31T15:06:12;23.08;;;16.42;;
22240;SDS011;11289;52.524;13.694;2022-10-31T15:08:40;28.58;;;16.60;;
22240;SDS011;11289;52.524;13.694;2022-10-31T15:11:20;26.15;;;16.20;;
22240;SDS011;11289;52.524;13.694;2022-10-31T15:13:48;26.67;;;16.05;;
22240;SDS011;11289;52.524;13.694;2022-10-31T15:16:16;21.13;;;15.23;;
22240;SDS011;11289;52.524;13.694;2022-10-31T15:18:51;23.15;;;15.52;;
22240;SDS011;11289;52.524;13.694;2022-10-31T15:21:19;25.33;;;15.85;;
22240;SDS011;11289;52.524;13.694;2022-10-31T15:23:46;31.05;;;17.40;;
22240;SDS011;11289;52.524;13.694;2022-10-31T15:26:17;26.33;;;15.85;;
22240;SDS011;11289;52.524;13.694;2022-10-31T15:28:44;25.02;;;16.83;;
22240;SDS011;11289;52.524;13.694;2022-10-31T15:31:16;25.52;;;17.42;;
22240;SDS011;11289;52.524;13.694;2022-10-31T15:33:42;25.65;;;17.88;;
22240;SDS011;11289;52.524;13.694;2022-10-31T15:36:24;25.38;;;18.42;;
22240;SDS011;11289;52.524;13.694;2022-10-31T15:38:51;27.80;;;20.30;;
22240;SDS011;11289;52.524;13.694;2022-10-31T15:41:23;27.15;;;20.92;;
22240;SDS011;11289;52.524;13.694;2022-10-31T15:43:53;28.77;;;20.13;;
22240;SDS011;11289;52.524;13.694;2022-10-31T15:46:20;30.52;;;22.33;;
22240;SDS011;11289;52.524;13.694;2022-10-31T15:48:46;28.67;;;19.65;;
22240;SDS011;11289;52.524;13.694;2022-10-31T15:51:13;28.98;;;21.45;;
22240;SDS011;11289;52.524;13.694;2022-10-31T15:53:44;26.95;;;20.15;;
22240;SDS011;11289;52.524;13.694;2022-10-31T15:56:21;29.10;;;21.08;;
22240;SDS011;11289;52.524;13.694;2022-10-31T15:58:48;34.40;;;21.15;;
22240;SDS011;11289;52.524;13.694;2022-10-31T16:01:23;27.67;;;20.30;;
22240;SDS011;11289;52.524;13.694;2022-10-31T16:04:04;28.58;;;20.25;;
22240;SDS011;11289;52.524;13.694;2022-10-31T16:06:30;25.65;;;19.40;;
22240;SDS011;11289;52.524;13.694;2022-10-31T16:08:56;31.13;;;19.90;;
22240;SDS011;11289;52.524;13.694;2022-10-31T16:11:24;32.70;;;21.65;;
22240;SDS011;11289;52.524;13.694;2022-10-31T16:14:18;27.75;;;20.10;;
22240;SDS011;11289;52.524;13.694;2022-10-31T16:16:49;26.85;;;20.63;;
22240;SDS011;11289;52.524;13.694;2022-10-31T16:21:49;28.85;;;20.55;;
22240;SDS011;11289;52.524;13.694;2022-10-31T16:24:53;27.85;;;20.80;;
22240;SDS011;11289;52.524;13.694;2022-10-31T16:27:19;32.78;;;23.27;;
22240;SDS011;11289;52.524;13.694;2022-10-31T16:29:50;35.80;;;26.65;;
22240;SDS011;11289;52.524;13.694;2022-10-31T16:32:30;37.17;;;26.27;;
22240;SDS011;11289;52.524;13.694;2022-10-31T16:35:37;37.50;;;27.73;;
22240;SDS011;11289;52.524;13.694;2022-10-31T16:38:03;36.53;;;27.70;;
22240;SDS011;11289;52.524;13.694;2022-10-31T16:40:29;37.20;;;28.23;;
22240;SDS011;11289;52.524;13.694;2022-10-31T16:42:59;39.28;;;29.02;;
22240;SDS011;11289;52.524;13.694;2022-10-31T16:45:26;38.22;;;28.67;;
22240;SDS011;11289;52.524;13.694;2022-10-31T16:47:53;37.25;;;27.35;;
22240;SDS011;11289;52.524;13.694;2022-10-31T16:50:24;36.17;;;27.33;;
22240;SDS011;11289;52.524;13.694;2022-10-31T16:52:50;35.95;;;26.27;;